createdAt,value
2023-03-06T01:12:28.262Z,37.27
2023-03-06T01:13:27.742Z,37.26
2023-03-06T01:14:27.778Z,37.25
2023-03-06T01:15:27.798Z,37.26
2023-03-06T01:16:27.842Z,37.25
2023-03-06T01:17:27.865Z,37.26
2023-03-06T01:18:27.897Z,37.23
2023-03-06T01:19:27.920Z,37.26
2023-03-06T01:20:27.953Z,37.22
2023-03-06T01:21:27.984Z,37.24
2023-03-06T01:22:28.007Z,37.22
2023-03-06T01:23:28.048Z,37.25
2023-03-06T01:24:28.066Z,37.21
2023-03-06T01:25:28.126Z,37.22
2023-03-06T01:26:28.192Z,37.20
2023-03-06T01:27:28.233Z,37.21
2023-03-06T01:28:28.296Z,37.19
2023-03-06T01:29:29.253Z,37.18
2023-03-06T01:30:28.403Z,37.16
2023-03-06T01:31:28.591Z,37.15
2023-03-06T01:32:28.629Z,37.18
2023-03-06T01:33:28.637Z,37.15
2023-03-06T01:34:28.710Z,37.14
2023-03-06T01:35:28.870Z,37.12
2023-03-06T01:36:28.873Z,37.13
2023-03-06T01:37:28.961Z,37.13
2023-03-06T01:38:29.030Z,37.12
2023-03-06T01:39:29.113Z,37.13
2023-03-06T01:40:29.194Z,37.10
2023-03-06T01:41:29.284Z,37.10
2023-03-06T01:42:31.355Z,37.09
2023-03-06T01:43:29.636Z,37.09
2023-03-06T01:44:29.736Z,37.07
2023-03-06T01:45:29.892Z,37.08
2023-03-06T01:46:29.942Z,37.08
2023-03-06T01:47:30.087Z,37.06
2023-03-06T01:48:30.176Z,37.06
2023-03-06T01:49:30.205Z,37.05
2023-03-06T01:50:30.291Z,37.05
2023-03-06T01:51:30.387Z,37.07
2023-03-06T01:52:30.479Z,37.07
2023-03-06T01:53:31.259Z,37.04
2023-03-06T01:54:30.628Z,37.02
2023-03-06T01:55:30.722Z,37.00
2023-03-06T01:56:30.784Z,37.00
2023-03-06T01:57:30.879Z,36.97
2023-03-06T01:58:30.965Z,37.00
2023-03-06T01:59:31.064Z,36.97
2023-03-06T02:00:31.177Z,36.98
2023-03-06T02:01:31.313Z,36.96
2023-03-06T02:02:31.382Z,36.97
2023-03-06T02:03:31.441Z,36.96
2023-03-06T02:04:31.522Z,36.97
2023-03-06T02:05:31.612Z,36.96
2023-03-06T02:06:31.687Z,36.94
2023-03-06T02:07:31.768Z,36.94
2023-03-06T02:08:31.845Z,36.94
2023-03-06T02:09:31.919Z,36.94
2023-03-06T02:10:31.997Z,36.94
2023-03-06T02:11:32.107Z,36.94
2023-03-06T02:12:32.226Z,36.93
2023-03-06T02:13:32.240Z,36.93
2023-03-06T02:14:32.310Z,36.92
2023-03-06T02:15:32.381Z,36.90
2023-03-06T02:16:32.512Z,36.92
2023-03-06T02:17:32.530Z,36.90
2023-03-06T02:18:32.588Z,36.91
2023-03-06T02:19:32.658Z,36.90
2023-03-06T02:20:32.735Z,36.92
2023-03-06T02:21:32.796Z,36.88
2023-03-06T02:22:32.938Z,36.91
2023-03-06T02:23:32.936Z,36.89
2023-03-06T02:24:33.100Z,36.92
2023-03-06T02:25:33.093Z,36.89
2023-03-06T02:26:33.162Z,36.90
2023-03-06T02:27:33.228Z,36.90
2023-03-06T02:28:33.304Z,36.90
2023-03-06T02:29:33.368Z,36.90
2023-03-06T02:30:33.479Z,36.89
2023-03-06T02:31:33.500Z,36.89
2023-03-06T02:32:33.587Z,36.89
2023-03-06T02:33:33.633Z,36.92
2023-03-06T02:34:33.695Z,36.91
2023-03-06T02:35:33.911Z,36.89
2023-03-06T02:36:33.855Z,36.89
2023-03-06T02:37:33.970Z,36.93
2023-03-06T02:38:34.029Z,36.90
2023-03-06T02:39:34.130Z,36.92
2023-03-06T02:40:34.199Z,36.92
2023-03-06T02:41:34.283Z,36.89
2023-03-06T02:42:34.371Z,36.88
2023-03-06T02:43:34.449Z,36.90
2023-03-06T02:44:34.557Z,36.90
2023-03-06T02:45:34.608Z,36.88
2023-03-06T02:46:34.755Z,36.88
2023-03-06T02:47:34.786Z,36.91
2023-03-06T02:48:34.855Z,36.86
2023-03-06T02:49:34.931Z,36.87
2023-03-06T02:50:35.013Z,36.89
2023-03-06T02:51:35.103Z,36.89
2023-03-06T02:52:35.196Z,36.90
2023-03-06T02:53:35.276Z,36.92
2023-03-06T02:54:35.349Z,36.90
2023-03-06T02:55:35.414Z,36.88
2023-03-06T02:56:35.463Z,36.89
2023-03-06T02:57:35.542Z,36.89
2023-03-06T02:58:35.626Z,36.88
2023-03-06T03:00:35.782Z,36.88
2023-03-06T03:01:35.852Z,36.87
2023-03-06T03:02:35.918Z,36.86
2023-03-06T03:03:35.997Z,36.86
2023-03-06T03:04:36.193Z,36.89
2023-03-06T03:05:36.121Z,36.88
2023-03-06T03:06:36.182Z,36.88
2023-03-06T03:07:36.251Z,36.90
2023-03-06T03:25:40.347Z,36.86
2023-03-06T03:39:37.709Z,36.85
2023-03-06T03:41:37.724Z,36.85
2023-03-06T03:43:37.718Z,36.83
2023-03-06T03:44:37.731Z,36.80
2023-03-06T03:45:37.756Z,36.80
2023-03-06T03:46:37.805Z,36.77
2023-03-06T03:47:37.790Z,36.80
2023-03-06T03:48:37.817Z,36.77
2023-03-06T03:49:37.827Z,36.79
2023-03-06T03:50:37.846Z,36.80
2023-03-06T03:51:37.866Z,36.78
2023-03-06T03:52:37.888Z,36.76
2023-03-06T03:53:37.908Z,36.76
2023-03-06T03:54:37.938Z,36.78
2023-03-06T03:55:38.022Z,36.78
2023-03-06T03:56:37.975Z,36.76
2023-03-06T03:57:37.990Z,36.77
2023-03-06T03:58:38.020Z,36.79
2023-03-06T03:59:38.041Z,36.78
2023-03-06T04:00:38.063Z,36.76
2023-03-06T04:01:39.706Z,36.77
2023-03-06T04:02:38.099Z,36.77
2023-03-06T04:03:38.119Z,36.77
2023-03-06T04:04:38.161Z,36.76
2023-03-06T04:05:38.148Z,36.80
2023-03-06T04:06:38.180Z,36.78
2023-03-06T04:07:38.214Z,36.76
2023-03-06T04:08:38.222Z,36.77
2023-03-06T04:09:38.251Z,36.76
2023-03-06T04:10:38.325Z,36.77
2023-03-06T04:11:38.282Z,36.78
2023-03-06T04:12:38.315Z,36.76
2023-03-06T04:13:38.334Z,36.77
2023-03-06T04:14:38.422Z,36.77
2023-03-06T04:15:38.485Z,36.77
2023-03-06T04:16:39.325Z,36.79
2023-03-06T04:17:38.639Z,36.76
2023-03-06T04:18:38.712Z,36.76
2023-03-06T04:19:38.784Z,36.78
2023-03-06T04:20:38.858Z,36.75
2023-03-06T04:21:38.913Z,36.75
2023-03-06T04:22:38.963Z,36.75
2023-03-06T04:23:38.996Z,36.76
2023-03-06T04:24:39.073Z,36.79
2023-03-06T04:25:39.133Z,36.76
2023-03-06T04:26:39.252Z,36.77
2023-03-06T04:27:39.252Z,36.76
2023-03-06T04:28:39.299Z,36.76
2023-03-06T04:29:39.332Z,36.78
2023-03-06T04:30:39.466Z,36.77
2023-03-06T04:31:39.436Z,36.77
2023-03-06T04:32:39.534Z,36.77
2023-03-06T04:33:39.509Z,36.75
2023-03-06T04:34:39.576Z,36.75
2023-03-06T04:35:39.657Z,36.76
2023-03-06T04:36:39.646Z,36.75
2023-03-06T04:37:39.677Z,36.73
2023-03-06T04:38:39.720Z,36.74
2023-03-06T04:39:39.833Z,36.75
2023-03-06T04:40:39.779Z,36.76
2023-03-06T04:41:39.800Z,36.75
2023-03-06T04:42:39.839Z,36.75
2023-03-06T04:43:39.865Z,36.74
2023-03-06T04:44:39.887Z,36.74
2023-03-06T04:45:39.937Z,36.75
2023-03-06T04:46:39.949Z,36.72
2023-03-06T04:47:39.982Z,36.73
2023-03-06T04:48:40.022Z,36.75
2023-03-06T04:49:40.090Z,36.76
2023-03-06T04:50:40.114Z,36.73
2023-03-06T04:51:40.150Z,36.72
2023-03-06T04:52:40.277Z,36.74
2023-03-06T04:53:40.221Z,36.71
2023-03-06T04:54:40.833Z,36.71
2023-03-06T04:55:40.270Z,36.71
2023-03-06T04:56:40.291Z,36.71
2023-03-06T04:57:40.364Z,36.69
2023-03-06T04:58:40.343Z,36.67
2023-03-06T04:59:40.376Z,36.70
2023-03-06T05:00:40.900Z,36.71
2023-03-06T05:01:40.397Z,36.71
2023-03-06T05:02:40.417Z,36.70
2023-03-06T05:03:40.532Z,36.69
2023-03-06T05:04:40.464Z,36.70
2023-03-06T05:05:40.474Z,36.69
2023-03-06T05:06:40.502Z,36.70
2023-03-06T05:07:40.525Z,36.70
2023-03-06T05:08:40.537Z,36.67
2023-03-06T05:09:40.563Z,36.68
2023-03-06T05:10:40.581Z,36.70
2023-03-06T05:11:40.618Z,36.70
2023-03-06T05:12:40.630Z,36.66
2023-03-06T05:13:40.648Z,36.68
2023-03-06T05:14:40.671Z,36.66
2023-03-06T05:15:40.692Z,36.66
2023-03-06T05:16:40.762Z,36.66
2023-03-06T05:17:40.742Z,36.66
2023-03-06T05:18:40.757Z,36.68
2023-03-06T05:19:41.359Z,36.65
2023-03-06T05:20:40.806Z,36.64
2023-03-06T05:21:40.832Z,36.68
2023-03-06T05:22:40.956Z,36.66
2023-03-06T05:23:40.909Z,36.67
2023-03-06T05:24:41.844Z,36.65
2023-03-06T05:25:41.839Z,36.68
2023-03-06T05:26:40.987Z,36.67
2023-03-06T05:27:41.009Z,36.66
2023-03-06T05:28:41.034Z,36.67
2023-03-06T05:29:41.058Z,36.63
2023-03-06T05:30:41.076Z,36.65
2023-03-06T05:31:41.155Z,36.64
2023-03-06T05:32:41.199Z,36.64
2023-03-06T05:33:41.167Z,36.63
2023-03-06T05:34:41.209Z,36.62
2023-03-06T05:35:41.266Z,36.64
2023-03-06T05:36:41.269Z,36.67
2023-03-06T05:37:41.314Z,36.66
2023-03-06T05:38:41.325Z,36.66
2023-03-06T05:39:42.352Z,36.64
2023-03-06T05:40:41.375Z,36.64
2023-03-06T05:41:41.410Z,36.64
2023-03-06T05:42:41.503Z,36.66
2023-03-06T05:43:41.471Z,36.61
2023-03-06T05:44:41.551Z,36.63
2023-03-06T05:45:41.610Z,36.60
2023-03-06T05:46:41.559Z,36.59
2023-03-06T05:47:41.586Z,36.58
2023-03-06T05:48:41.618Z,36.59
2023-03-06T05:49:41.639Z,36.59
2023-03-06T05:50:41.716Z,36.58
2023-03-06T05:51:41.691Z,36.57
2023-03-06T05:52:41.729Z,36.56
2023-03-06T05:53:41.745Z,36.56
2023-03-06T05:54:41.777Z,36.54
2023-03-06T05:55:41.804Z,36.57
2023-03-06T05:56:42.903Z,36.55
2023-03-06T05:57:41.915Z,36.55
2023-03-06T05:58:41.863Z,36.55
2023-03-06T05:59:43.169Z,36.52
2023-03-06T06:00:41.904Z,36.55
2023-03-06T06:01:41.932Z,36.56
2023-03-06T06:02:42.018Z,36.54
2023-03-06T06:03:42.025Z,36.54
2023-03-06T06:04:42.057Z,36.53
2023-03-06T06:05:42.045Z,36.54
2023-03-06T06:06:42.130Z,36.52
2023-03-06T06:07:42.093Z,36.55
2023-03-06T06:08:42.106Z,36.51
2023-03-06T06:09:42.134Z,36.51
2023-03-06T06:10:42.155Z,36.52
2023-03-06T06:11:42.183Z,36.55
2023-03-06T06:12:42.216Z,36.51
2023-03-06T06:13:42.258Z,36.53
2023-03-06T06:14:42.275Z,36.51
2023-03-06T06:15:42.342Z,36.53
2023-03-06T06:16:42.326Z,36.50
2023-03-06T06:17:42.361Z,36.51
2023-03-06T06:18:42.404Z,36.50
2023-03-06T06:19:42.426Z,36.51
2023-03-06T06:20:42.463Z,36.50
2023-03-06T06:21:42.512Z,36.51
2023-03-06T06:22:42.524Z,36.51
2023-03-06T06:23:43.375Z,36.51
2023-03-06T06:24:42.667Z,36.52
2023-03-06T06:25:42.620Z,36.50
2023-03-06T06:26:42.658Z,36.52
2023-03-06T06:27:42.693Z,36.52
2023-03-06T06:28:42.746Z,36.53
2023-03-06T06:29:42.781Z,36.51
2023-03-06T06:30:42.812Z,36.49
2023-03-06T06:31:42.871Z,36.46
2023-03-06T06:32:42.891Z,36.43
2023-03-06T06:33:42.946Z,36.41
2023-03-06T06:34:42.968Z,36.38
2023-03-06T06:35:43.054Z,36.37
2023-03-06T06:36:43.039Z,36.35
2023-03-06T06:37:43.072Z,36.35
2023-03-06T06:38:43.096Z,36.35
2023-03-06T06:39:43.131Z,36.33
2023-03-06T06:40:43.175Z,36.33
2023-03-06T06:41:57.592Z,36.34
2023-03-06T06:42:44.219Z,36.34
2023-03-06T06:43:43.231Z,36.33
2023-03-06T06:44:43.248Z,36.31
2023-03-06T06:45:43.268Z,36.31
2023-03-06T06:47:21.282Z,36.33
2023-03-06T06:48:43.390Z,36.34
2023-03-06T06:49:43.364Z,36.34
2023-03-06T06:50:43.391Z,36.35
2023-03-06T06:51:43.424Z,36.36
2023-03-06T06:52:43.457Z,36.33
2023-03-06T06:53:43.469Z,36.35
2023-03-06T06:54:43.494Z,36.34
2023-03-06T06:55:43.511Z,36.33
2023-03-06T06:56:43.553Z,36.36
2023-03-06T06:57:43.552Z,36.35
2023-03-06T06:58:43.590Z,36.34
2023-03-06T06:59:44.376Z,36.33
2023-03-06T07:00:43.631Z,36.34
2023-03-06T07:01:43.719Z,36.33
2023-03-06T07:02:43.700Z,36.34
2023-03-06T09:06:47.931Z,45.04
2023-03-06T09:41:47.570Z,42.85
2023-03-06T13:48:15.874Z,43.13
2023-03-06T13:48:54.166Z,43.15
2023-03-06T13:50:54.053Z,43.18
2023-03-06T13:52:55.152Z,43.19
2023-03-06T13:53:53.396Z,43.21
2023-03-06T13:54:53.417Z,43.20
2023-03-06T13:55:53.468Z,43.20
2023-03-06T13:56:53.489Z,43.18
2023-03-06T13:57:53.516Z,43.19
2023-03-06T13:58:53.528Z,43.21
2023-03-06T14:00:06.650Z,43.20
2023-03-06T14:00:55.547Z,43.23
2023-03-06T14:01:53.582Z,43.20
2023-03-06T14:02:53.633Z,43.15
2023-03-06T14:03:53.544Z,43.14
2023-03-06T14:04:53.558Z,43.15
2023-03-06T14:05:53.546Z,43.15
2023-03-06T14:06:53.620Z,43.16
2023-03-06T14:07:53.544Z,43.17
2023-03-06T14:08:53.617Z,43.17
2023-03-06T14:09:53.545Z,43.21
2023-03-06T14:10:53.552Z,43.21
2023-03-06T14:11:53.566Z,43.24
2023-03-06T14:12:53.551Z,43.21
2023-03-06T14:13:53.570Z,43.24
2023-03-06T14:20:53.602Z,43.15
2023-03-06T14:21:53.624Z,43.12
2023-03-06T14:22:53.648Z,43.11
2023-03-06T14:23:53.680Z,43.09
2023-03-06T14:24:53.621Z,43.15
2023-03-06T14:25:53.628Z,43.18
2023-03-06T14:26:53.654Z,43.20
2023-03-06T14:27:58.183Z,43.21
2023-03-06T14:29:53.679Z,43.25
2023-03-06T14:30:53.716Z,43.23
2023-03-06T14:31:53.705Z,43.23
2023-03-06T14:32:53.708Z,43.22
2023-03-06T14:33:53.754Z,43.23
2023-03-06T14:34:53.734Z,43.19
2023-03-06T14:35:55.617Z,43.24
2023-03-06T14:36:53.743Z,43.23
2023-03-06T14:37:53.807Z,43.23
2023-03-06T14:38:53.757Z,43.27
2023-03-06T14:39:53.758Z,43.27
2023-03-06T14:40:53.761Z,43.27
2023-03-06T14:41:53.774Z,43.27
2023-03-06T14:42:53.778Z,43.27
2023-03-06T14:43:53.794Z,43.27
2023-03-06T14:44:53.817Z,43.26
2023-03-06T14:45:53.871Z,43.28
2023-03-06T14:46:53.877Z,43.27
2023-03-06T14:47:53.836Z,43.21
2023-03-06T14:48:53.868Z,43.23
2023-03-06T14:49:53.907Z,43.20
2023-03-06T14:50:53.947Z,43.21
2023-03-06T14:51:53.962Z,43.24
2023-03-06T14:52:54.003Z,43.20
2023-03-06T14:53:54.045Z,43.22
2023-03-06T17:15:03.341Z,47.63
2023-03-06T17:16:03.434Z,47.56
2023-03-06T17:17:03.495Z,47.61
2023-03-06T17:18:03.581Z,47.58
2023-03-06T17:19:03.662Z,47.56
2023-03-06T17:20:03.748Z,47.56
2023-03-06T17:21:03.809Z,47.55
2023-03-06T17:22:03.879Z,47.54
2023-03-06T17:23:03.964Z,47.55
2023-03-06T17:24:04.046Z,47.54
2023-03-06T17:25:04.092Z,47.50
2023-03-06T17:26:04.154Z,47.50
2023-03-06T17:27:04.236Z,47.47
2023-03-06T17:28:04.314Z,47.46
2023-03-06T17:29:06.872Z,47.43
2023-03-06T17:30:04.646Z,47.42
2023-03-06T17:31:04.786Z,47.42
2023-03-06T17:32:04.845Z,47.39
2023-03-06T17:33:04.899Z,47.40
2023-03-06T17:34:04.957Z,47.38
2023-03-06T17:35:05.002Z,47.35
2023-03-06T17:36:05.088Z,47.35
2023-03-06T17:37:05.153Z,47.38
2023-03-06T17:38:05.158Z,47.34
2023-03-06T17:39:05.208Z,47.35
2023-03-06T17:40:05.246Z,47.32
2023-03-06T17:41:05.303Z,47.31
2023-03-06T17:42:05.379Z,47.32
2023-03-06T17:43:05.438Z,47.31
2023-03-06T17:44:05.486Z,47.30
2023-03-06T17:45:05.529Z,47.29
2023-03-06T17:46:05.722Z,47.26
2023-03-06T17:47:05.649Z,47.25
2023-03-06T17:48:05.709Z,47.24
2023-03-06T17:49:05.770Z,47.22
2023-03-06T17:50:05.811Z,47.19
2023-03-06T17:51:05.855Z,47.18
2023-03-06T17:52:05.927Z,47.15
2023-03-06T17:53:05.990Z,47.17
2023-03-06T17:54:06.057Z,47.15
2023-03-06T17:55:06.093Z,47.13
2023-03-06T17:56:06.110Z,47.13
2023-03-06T17:57:06.124Z,47.12
2023-03-06T17:58:06.174Z,47.10
2023-03-06T17:59:06.223Z,47.09
2023-03-06T18:00:06.324Z,47.09
2023-03-06T18:01:06.256Z,47.06
2023-03-06T18:02:06.415Z,47.02
2023-03-06T18:03:06.308Z,47.04
2023-03-06T18:04:06.317Z,47.02
2023-03-06T18:05:06.398Z,46.97
2023-03-06T18:06:06.382Z,46.97
2023-03-06T18:07:06.430Z,46.97
2023-03-06T18:08:06.514Z,46.96
2023-03-06T18:09:06.466Z,46.97
2023-03-06T18:10:06.552Z,46.94
2023-03-06T18:11:06.562Z,46.94
2023-03-06T18:12:06.534Z,46.90
2023-03-06T18:13:06.548Z,46.91
2023-03-06T18:14:06.574Z,46.92
2023-03-06T18:15:06.599Z,46.89
2023-03-06T18:16:06.738Z,46.88
2023-03-06T18:17:06.667Z,46.87
2023-03-06T18:18:06.691Z,46.85
2023-03-06T18:19:06.711Z,46.83
2023-03-06T18:20:06.734Z,46.81
2023-03-06T18:21:06.753Z,46.77
2023-03-06T18:22:06.792Z,46.78
2023-03-06T18:23:06.839Z,46.77
2023-03-06T18:24:06.836Z,46.80
2023-03-06T18:25:06.851Z,46.75
2023-03-06T18:26:09.455Z,46.71
2023-03-06T18:27:06.938Z,46.72
2023-03-06T18:28:06.924Z,46.74
2023-03-06T18:29:07.158Z,46.72
2023-03-06T18:30:06.951Z,46.71
2023-03-06T21:06:11.277Z,44.93
2023-03-06T21:07:11.313Z,44.91
2023-03-06T21:08:11.360Z,44.89
2023-03-06T21:09:11.409Z,44.89
2023-03-06T21:10:11.442Z,44.89
2023-03-06T21:11:11.554Z,44.84
2023-03-06T21:12:11.538Z,44.85
2023-03-06T21:13:11.572Z,44.84
2023-03-06T21:14:11.615Z,44.84
2023-03-06T21:15:11.671Z,44.83
2023-03-06T21:17:13.770Z,44.84
2023-03-06T21:18:11.800Z,44.82
2023-03-06T21:19:11.885Z,44.81
2023-03-06T21:20:11.885Z,44.80
2023-03-06T21:21:11.940Z,44.79
2023-03-06T21:22:11.985Z,44.77
2023-03-06T21:23:12.031Z,44.77
2023-03-06T21:24:12.068Z,44.74
2023-03-06T21:25:12.117Z,44.73
2023-03-06T21:26:12.182Z,44.73
2023-03-06T21:27:12.213Z,44.71
2023-03-06T21:28:12.264Z,44.70
2023-03-06T21:29:12.313Z,44.69
2023-03-06T21:30:12.353Z,44.66
2023-03-06T21:31:12.785Z,44.68
2023-03-06T21:32:12.478Z,44.68
2023-03-06T21:33:12.482Z,44.64
2023-03-06T21:34:12.559Z,44.62
2023-03-06T21:35:12.586Z,44.61
2023-03-06T21:36:12.641Z,44.59
2023-03-06T21:37:12.683Z,44.61
2023-03-06T21:38:12.733Z,44.61
2023-03-06T21:39:13.235Z,44.57
2023-03-06T21:40:12.827Z,44.58
2023-03-06T21:41:12.875Z,44.57
2023-03-06T21:42:12.923Z,44.56
2023-03-06T21:43:12.979Z,44.55
2023-03-06T21:44:13.107Z,44.54
2023-03-06T21:45:13.066Z,44.55
2023-03-06T21:46:13.198Z,44.54
2023-03-06T21:47:13.191Z,44.52
2023-03-06T21:48:13.222Z,44.53
2023-03-06T21:49:13.255Z,44.50
2023-03-06T21:50:13.330Z,44.49
2023-03-06T21:51:13.374Z,44.47
2023-03-06T21:52:13.399Z,44.46
2023-03-06T21:53:13.448Z,44.47
2023-03-06T21:54:13.575Z,44.47
2023-03-06T21:55:13.540Z,44.47
2023-03-06T21:56:13.585Z,44.44
2023-03-06T21:57:13.634Z,44.44
2023-03-06T21:58:13.677Z,44.41
2023-03-06T21:59:13.754Z,44.39
2023-03-06T22:00:13.780Z,44.41
2023-03-06T22:01:13.886Z,44.38
2023-03-06T22:02:13.874Z,44.39
2023-03-06T22:03:13.933Z,44.36
2023-03-06T22:04:13.989Z,44.35
2023-03-06T22:05:14.040Z,44.35
2023-03-06T22:06:14.079Z,44.36
2023-03-06T22:07:14.134Z,44.35
2023-03-06T22:08:14.181Z,44.32
2023-03-06T22:09:14.232Z,44.33
2023-03-06T22:10:14.351Z,44.32
2023-03-06T22:11:14.336Z,44.31
2023-03-06T22:12:14.417Z,44.31
2023-03-06T22:13:14.445Z,44.30
2023-03-06T22:14:14.482Z,44.29
2023-03-06T22:15:15.244Z,44.27
2023-03-06T22:16:15.327Z,44.27
2023-03-06T22:17:14.649Z,44.28
2023-03-06T22:18:14.710Z,44.24
2023-03-06T22:19:14.734Z,44.24
2023-03-06T22:20:14.780Z,44.25
2023-03-06T22:21:14.846Z,44.27
2023-03-06T22:22:14.886Z,44.23
2023-03-06T22:23:14.956Z,44.24
2023-03-06T22:24:15.040Z,44.23
2023-03-06T22:25:15.048Z,44.22
2023-03-06T22:26:15.095Z,44.23
2023-03-06T22:27:15.147Z,44.20
2023-03-06T22:28:15.186Z,44.20
2023-03-06T22:29:15.232Z,44.17
2023-03-06T22:30:15.286Z,44.16
2023-03-06T22:31:15.344Z,44.16
2023-03-06T22:32:15.550Z,44.18
2023-03-06T22:33:15.433Z,44.12
2023-03-06T22:34:15.494Z,44.12
2023-03-06T22:35:15.533Z,44.13
2023-03-06T22:36:15.613Z,44.12
2023-03-06T22:37:15.652Z,44.12
2023-03-06T22:38:15.710Z,44.09
2023-03-06T22:39:15.753Z,44.09
2023-03-06T22:40:15.829Z,44.09
2023-03-06T22:41:15.868Z,44.09
2023-03-06T22:42:15.924Z,44.08
2023-03-06T22:43:15.971Z,44.07
2023-03-06T22:44:16.030Z,44.05
2023-03-06T22:45:16.091Z,44.03
2023-03-06T22:46:16.199Z,44.05
2023-03-06T22:47:16.749Z,44.03
2023-03-06T22:48:16.249Z,44.03
2023-03-06T22:49:16.305Z,44.03
2023-03-06T22:50:16.355Z,44.00
2023-03-06T22:51:16.408Z,44.00
2023-03-06T22:52:16.479Z,43.99
2023-03-06T22:53:16.528Z,43.99
2023-03-06T22:54:16.587Z,43.97
2023-03-06T22:55:16.750Z,43.97
2023-03-06T22:56:16.705Z,43.96
2023-03-06T22:57:16.765Z,43.94
2023-03-06T22:58:16.832Z,43.96
2023-03-06T22:59:16.912Z,43.93
2023-03-06T23:00:16.954Z,43.92
2023-03-06T23:01:17.048Z,43.94
2023-03-06T23:02:17.060Z,43.90
2023-03-06T23:03:17.124Z,43.90
2023-03-06T23:04:17.198Z,43.89
2023-03-06T23:05:17.238Z,43.88
2023-03-06T23:06:17.295Z,43.86
2023-03-06T23:07:17.355Z,43.86
2023-03-06T23:08:17.423Z,43.85
2023-03-06T23:09:17.472Z,43.85
2023-03-06T23:10:17.526Z,43.83
2023-03-06T23:11:17.587Z,43.83
2023-03-06T23:12:17.634Z,43.82
2023-03-06T23:13:17.695Z,43.80
2023-03-06T23:14:17.849Z,43.82
2023-03-06T23:15:17.813Z,43.78
